sensor_id;sensor_type;location;lat;lon;timestamp;pressure;altitude;pressure_sealevel;temperature;humidity
38225;BME280;24025;48.138;11.428;2022-08-21T00:01:17;95664.16;;;16.60;98.13
38225;BME280;24025;48.138;11.428;2022-08-21T00:03:49;95666.50;;;16.58;97.34
38225;BME280;24025;48.138;11.428;2022-08-21T00:06:20;95664.97;;;16.57;97.75
38225;BME280;24025;48.138;11.428;2022-08-21T00:08:51;95660.00;;;16.56;97.58
38225;BME280;24025;48.138;11.428;2022-08-21T00:11:21;95667.69;;;16.54;97.64
38225;BME280;24025;48.138;11.428;2022-08-21T00:13:53;95660.03;;;16.52;97.52
38225;BME280;24025;48.138;11.428;2022-08-21T00:16:24;95658.88;;;16.50;97.31
38225;BME280;24025;48.138;11.428;2022-08-21T00:18:54;95657.34;;;16.49;97.15
38225;BME280;24025;48.138;11.428;2022-08-21T00:21:25;95649.72;;;16.43;96.01
38225;BME280;24025;48.138;11.428;2022-08-21T00:23:55;95655.88;;;16.40;96.73
38225;BME280;24025;48.138;11.428;2022-08-21T00:26:25;95646.66;;;16.38;96.63
38225;BME280;24025;48.138;11.428;2022-08-21T00:28:56;95649.38;;;16.38;96.68
38225;BME280;24025;48.138;11.428;2022-08-21T00:31:26;95650.16;;;16.35;96.85
38225;BME280;24025;48.138;11.428;2022-08-21T00:33:57;95653.22;;;16.33;96.03
38225;BME280;24025;48.138;11.428;2022-08-21T00:36:28;95661.69;;;16.32;96.05
38225;BME280;24025;48.138;11.428;2022-08-21T00:38:58;95650.56;;;16.30;96.20
38225;BME280;24025;48.138;11.428;2022-08-21T00:41:29;95652.50;;;16.29;96.74
38225;BME280;24025;48.138;11.428;2022-08-21T00:43:59;95653.66;;;16.28;96.67
38225;BME280;24025;48.138;11.428;2022-08-21T00:46:30;95650.22;;;16.28;96.80
38225;BME280;24025;48.138;11.428;2022-08-21T00:49:00;95651.38;;;16.27;96.50
38225;BME280;24025;48.138;11.428;2022-08-21T00:51:48;95649.84;;;16.26;96.84
38225;BME280;24025;48.138;11.428;2022-08-21T00:54:21;95649.47;;;16.24;96.55
38225;BME280;24025;48.138;11.428;2022-08-21T00:57:05;95653.72;;;16.21;96.63
38225;BME280;24025;48.138;11.428;2022-08-21T00:59:38;95651.03;;;16.21;96.68
38225;BME280;24025;48.138;11.428;2022-08-21T01:02:10;95645.63;;;16.21;96.75
38225;BME280;24025;48.138;11.428;2022-08-21T01:04:41;95648.72;;;16.20;96.54
38225;BME280;24025;48.138;11.428;2022-08-21T01:07:12;95644.13;;;16.17;96.09
38225;BME280;24025;48.138;11.428;2022-08-21T01:09:45;95647.22;;;16.15;96.05
38225;BME280;24025;48.138;11.428;2022-08-21T01:12:16;95643.00;;;16.14;95.76
38225;BME280;24025;48.138;11.428;2022-08-21T01:14:47;95648.00;;;16.12;95.67
38225;BME280;24025;48.138;11.428;2022-08-21T01:17:20;95641.88;;;16.11;96.05
38225;BME280;24025;48.138;11.428;2022-08-21T01:19:51;95635.72;;;16.07;96.19
38225;BME280;24025;48.138;11.428;2022-08-21T01:22:22;95637.66;;;16.07;95.19
38225;BME280;24025;48.138;11.428;2022-08-21T01:24:52;95636.13;;;16.06;95.62
38225;BME280;24025;48.138;11.428;2022-08-21T01:27:23;95635.00;;;16.03;95.63
38225;BME280;24025;48.138;11.428;2022-08-21T01:30:04;95634.22;;;16.03;95.86
38225;BME280;24025;48.138;11.428;2022-08-21T01:32:38;95633.47;;;15.99;95.01
38225;BME280;24025;48.138;11.428;2022-08-21T01:35:09;95632.75;;;15.95;94.95
38225;BME280;24025;48.138;11.428;2022-08-21T01:37:42;95628.53;;;15.94;95.10
38225;BME280;24025;48.138;11.428;2022-08-21T01:40:13;95634.72;;;15.91;95.26
38225;BME280;24025;48.138;11.428;2022-08-21T01:42:44;95622.38;;;15.90;95.49
38225;BME280;24025;48.138;11.428;2022-08-21T01:45:15;95638.16;;;15.88;94.59
38225;BME280;24025;48.138;11.428;2022-08-21T01:47:46;95638.56;;;15.86;94.99
38225;BME280;24025;48.138;11.428;2022-08-21T01:50:19;95633.97;;;15.83;94.33
38225;BME280;24025;48.138;11.428;2022-08-21T01:52:50;95642.81;;;15.80;94.95
38225;BME280;24025;48.138;11.428;2022-08-21T01:55:21;95630.16;;;15.77;95.04
38225;BME280;24025;48.138;11.428;2022-08-21T01:57:52;95624.78;;;15.77;94.78
38225;BME280;24025;48.138;11.428;2022-08-21T02:00:23;95632.09;;;15.76;94.18
38225;BME280;24025;48.138;11.428;2022-08-21T02:02:53;95620.97;;;15.71;94.28
38225;BME280;24025;48.138;11.428;2022-08-21T02:05:24;95625.22;;;15.68;94.58
38225;BME280;24025;48.138;11.428;2022-08-21T02:07:55;95622.56;;;15.65;94.50
38225;BME280;24025;48.138;11.428;2022-08-21T02:10:30;95619.47;;;15.63;94.90
38225;BME280;24025;48.138;11.428;2022-08-21T02:13:00;95618.31;;;15.60;95.30
38225;BME280;24025;48.138;11.428;2022-08-21T02:15:31;95605.66;;;15.61;95.36
38225;BME280;24025;48.138;11.428;2022-08-21T02:18:02;95607.19;;;15.58;95.37
38225;BME280;24025;48.138;11.428;2022-08-21T02:20:38;95601.81;;;15.58;94.76
38225;BME280;24025;48.138;11.428;2022-08-21T02:23:10;95605.66;;;15.53;94.73
38225;BME280;24025;48.138;11.428;2022-08-21T02:25:41;95608.00;;;15.51;95.03
38225;BME280;24025;48.138;11.428;2022-08-21T02:28:13;95607.63;;;15.49;95.28
38225;BME280;24025;48.138;11.428;2022-08-21T02:30:46;95606.09;;;15.48;95.52
38225;BME280;24025;48.138;11.428;2022-08-21T02:33:17;95610.31;;;15.46;95.30
38225;BME280;24025;48.138;11.428;2022-08-21T02:35:49;95612.63;;;15.47;95.84
38225;BME280;24025;48.138;11.428;2022-08-21T02:38:24;95611.88;;;15.47;95.72
38225;BME280;24025;48.138;11.428;2022-08-21T02:40:56;95611.88;;;15.47;95.63
38225;BME280;24025;48.138;11.428;2022-08-21T02:43:27;95608.78;;;15.45;95.39
38225;BME280;24025;48.138;11.428;2022-08-21T02:45:58;95612.22;;;15.45;95.62
38225;BME280;24025;48.138;11.428;2022-08-21T02:48:30;95611.47;;;15.45;95.60
38225;BME280;24025;48.138;11.428;2022-08-21T02:51:06;95608.41;;;15.46;95.64
38225;BME280;24025;48.138;11.428;2022-08-21T02:53:38;95609.19;;;15.47;95.21
38225;BME280;24025;48.138;11.428;2022-08-21T02:56:12;95602.25;;;15.46;95.05
38225;BME280;24025;48.138;11.428;2022-08-21T02:58:46;95598.03;;;15.45;95.20
38225;BME280;24025;48.138;11.428;2022-08-21T03:01:17;95604.56;;;15.44;95.17
38225;BME280;24025;48.138;11.428;2022-08-21T03:03:48;95603.41;;;15.45;95.27
38225;BME280;24025;48.138;11.428;2022-08-21T03:06:22;95604.56;;;15.44;94.92
38225;BME280;24025;48.138;11.428;2022-08-21T03:08:52;95600.34;;;15.43;94.96
38225;BME280;24025;48.138;11.428;2022-08-21T03:11:23;95600.38;;;15.39;94.88
38225;BME280;24025;48.138;11.428;2022-08-21T03:13:53;95609.97;;;15.40;94.94
38225;BME280;24025;48.138;11.428;2022-08-21T03:16:24;95606.16;;;15.38;94.78
38225;BME280;24025;48.138;11.428;2022-08-21T03:18:54;95614.56;;;15.36;94.60
38225;BME280;24025;48.138;11.428;2022-08-21T03:21:24;95612.28;;;15.35;94.64
38225;BME280;24025;48.138;11.428;2022-08-21T03:23:55;95613.84;;;15.32;94.54
38225;BME280;24025;48.138;11.428;2022-08-21T03:26:26;95615.41;;;15.29;94.55
38225;BME280;24025;48.138;11.428;2022-08-21T03:28:56;95611.94;;;15.29;94.64
38225;BME280;24025;48.138;11.428;2022-08-21T03:31:27;95608.50;;;15.28;94.89
38225;BME280;24025;48.138;11.428;2022-08-21T03:34:01;95608.09;;;15.26;94.77
38225;BME280;24025;48.138;11.428;2022-08-21T03:36:31;95605.81;;;15.25;94.64
38225;BME280;24025;48.138;11.428;2022-08-21T03:39:02;95605.44;;;15.23;94.85
38225;BME280;24025;48.138;11.428;2022-08-21T03:41:32;95603.53;;;15.16;94.59
38225;BME280;24025;48.138;11.428;2022-08-21T03:44:03;95605.44;;;15.16;94.98
38225;BME280;24025;48.138;11.428;2022-08-21T03:46:33;95606.63;;;15.15;94.97
38225;BME280;24025;48.138;11.428;2022-08-21T03:49:04;95610.84;;;15.12;95.17
38225;BME280;24025;48.138;11.428;2022-08-21T03:51:34;95612.38;;;15.13;95.12
38225;BME280;24025;48.138;11.428;2022-08-21T03:54:05;95614.31;;;15.13;94.61
38225;BME280;24025;48.138;11.428;2022-08-21T03:56:36;95613.94;;;15.11;94.29
38225;BME280;24025;48.138;11.428;2022-08-21T03:59:06;95618.50;;;15.10;94.76
38225;BME280;24025;48.138;11.428;2022-08-21T04:01:37;95620.81;;;15.08;94.50
38225;BME280;24025;48.138;11.428;2022-08-21T04:04:08;95625.81;;;15.06;94.44
38225;BME280;24025;48.138;11.428;2022-08-21T04:06:38;95628.53;;;14.99;94.31
38225;BME280;24025;48.138;11.428;2022-08-21T04:09:08;95625.06;;;14.98;94.96
38225;BME280;24025;48.138;11.428;2022-08-21T04:11:39;95621.25;;;14.96;95.39
38225;BME280;24025;48.138;11.428;2022-08-21T04:14:09;95622.03;;;14.96;95.32
38225;BME280;24025;48.138;11.428;2022-08-21T04:16:41;95630.06;;;14.93;94.84
38225;BME280;24025;48.138;11.428;2022-08-21T04:19:13;95623.56;;;14.94;95.23
38225;BME280;24025;48.138;11.428;2022-08-21T04:21:43;95628.53;;;14.95;94.96
38225;BME280;24025;48.138;11.428;2022-08-21T04:24:13;95633.53;;;14.93;94.48
38225;BME280;24025;48.138;11.428;2022-08-21T04:26:44;95625.50;;;14.93;94.88
38225;BME280;24025;48.138;11.428;2022-08-21T04:29:14;95632.78;;;14.86;94.20
38225;BME280;24025;48.138;11.428;2022-08-21T04:31:45;95632.03;;;14.85;94.35
38225;BME280;24025;48.138;11.428;2022-08-21T04:34:15;95635.47;;;14.82;94.71
38225;BME280;24025;48.138;11.428;2022-08-21T04:36:45;95630.09;;;14.82;94.98
38225;BME280;24025;48.138;11.428;2022-08-21T04:39:16;95632.00;;;14.82;94.85
38225;BME280;24025;48.138;11.428;2022-08-21T04:41:46;95637.41;;;14.78;94.41
38225;BME280;24025;48.138;11.428;2022-08-21T04:44:17;95636.63;;;14.78;94.53
38225;BME280;24025;48.138;11.428;2022-08-21T04:46:48;95641.25;;;14.77;95.12
38225;BME280;24025;48.138;11.428;2022-08-21T04:49:18;95645.47;;;14.78;94.95
38225;BME280;24025;48.138;11.428;2022-08-21T04:51:49;95640.09;;;14.78;94.72
38225;BME280;24025;48.138;11.428;2022-08-21T04:54:21;95638.53;;;14.81;94.97
38225;BME280;24025;48.138;11.428;2022-08-21T04:57:11;95640.06;;;14.85;94.55
38225;BME280;24025;48.138;11.428;2022-08-21T04:59:48;95642.75;;;14.89;94.38
38225;BME280;24025;48.138;11.428;2022-08-21T05:02:20;95646.19;;;14.93;93.94
38225;BME280;24025;48.138;11.428;2022-08-21T05:04:53;95644.66;;;14.95;93.93
38225;BME280;24025;48.138;11.428;2022-08-21T05:07:26;95648.88;;;14.93;93.62
38225;BME280;24025;48.138;11.428;2022-08-21T05:09:59;95643.50;;;14.96;93.97
38225;BME280;24025;48.138;11.428;2022-08-21T05:12:31;95645.00;;;15.01;94.28
38225;BME280;24025;48.138;11.428;2022-08-21T05:15:03;95652.31;;;15.04;93.89
38225;BME280;24025;48.138;11.428;2022-08-21T05:17:33;95654.22;;;15.07;93.51
38225;BME280;24025;48.138;11.428;2022-08-21T05:20:04;95653.81;;;15.12;93.41
38225;BME280;24025;48.138;11.428;2022-08-21T05:22:38;95650.34;;;15.15;93.22
38225;BME280;24025;48.138;11.428;2022-08-21T05:25:09;95650.34;;;15.22;92.85
38225;BME280;24025;48.138;11.428;2022-08-21T05:27:40;95647.25;;;15.31;92.51
38225;BME280;24025;48.138;11.428;2022-08-21T05:30:11;95651.06;;;15.37;91.82
38225;BME280;24025;48.138;11.428;2022-08-21T05:32:41;95647.22;;;15.38;91.60
38225;BME280;24025;48.138;11.428;2022-08-21T05:35:11;95651.03;;;15.41;91.88
38225;BME280;24025;48.138;11.428;2022-08-21T05:37:42;95654.88;;;15.47;92.00
38225;BME280;24025;48.138;11.428;2022-08-21T05:40:12;95648.31;;;15.51;91.48
38225;BME280;24025;48.138;11.428;2022-08-21T05:42:44;95656.75;;;15.61;91.64
38225;BME280;24025;48.138;11.428;2022-08-21T05:45:14;95657.84;;;15.70;91.62
38225;BME280;24025;48.138;11.428;2022-08-21T05:47:45;95660.09;;;15.79;91.90
38225;BME280;24025;48.138;11.428;2022-08-21T05:50:15;95665.03;;;15.95;91.09
38225;BME280;24025;48.138;11.428;2022-08-21T05:52:46;95665.59;;;16.24;89.92
38225;BME280;24025;48.138;11.428;2022-08-21T05:55:16;95665.31;;;16.63;86.90
38225;BME280;24025;48.138;11.428;2022-08-21T05:57:46;95654.31;;;16.91;85.96
38225;BME280;24025;48.138;11.428;2022-08-21T06:00:17;95658.06;;;17.01;84.22
38225;BME280;24025;48.138;11.428;2022-08-21T06:02:47;95661.56;;;16.98;84.33
38225;BME280;24025;48.138;11.428;2022-08-21T06:05:18;95660.88;;;16.90;84.79
38225;BME280;24025;48.138;11.428;2022-08-21T06:07:49;95665.50;;;16.86;85.56
38225;BME280;24025;48.138;11.428;2022-08-21T06:10:19;95656.72;;;16.82;85.84
38225;BME280;24025;48.138;11.428;2022-08-21T06:12:53;95656.72;;;16.82;86.35
38225;BME280;24025;48.138;11.428;2022-08-21T06:15:25;95669.41;;;16.82;86.41
38225;BME280;24025;48.138;11.428;2022-08-21T06:17:55;95663.25;;;16.81;86.04
38225;BME280;24025;48.138;11.428;2022-08-21T06:20:26;95663.66;;;16.80;86.37
38225;BME280;24025;48.138;11.428;2022-08-21T06:22:56;95664.38;;;16.84;85.77
38225;BME280;24025;48.138;11.428;2022-08-21T06:25:27;95672.81;;;16.86;83.54
38225;BME280;24025;48.138;11.428;2022-08-21T06:28:03;95665.13;;;16.88;84.10
38225;BME280;24025;48.138;11.428;2022-08-21T06:30:35;95662.41;;;16.91;84.36
38225;BME280;24025;48.138;11.428;2022-08-21T06:33:06;95666.63;;;16.92;82.33
38225;BME280;24025;48.138;11.428;2022-08-21T06:35:37;95668.13;;;16.97;83.04
38225;BME280;24025;48.138;11.428;2022-08-21T06:38:08;95672.75;;;16.96;81.71
38225;BME280;24025;48.138;11.428;2022-08-21T06:40:38;95663.41;;;17.05;81.72
38225;BME280;24025;48.138;11.428;2022-08-21T06:43:12;95666.09;;;17.08;81.53
38225;BME280;24025;48.138;11.428;2022-08-21T06:45:43;95673.34;;;17.15;80.67
38225;BME280;24025;48.138;11.428;2022-08-21T06:48:14;95657.13;;;17.18;79.91
38225;BME280;24025;48.138;11.428;2022-08-21T06:50:44;95669.00;;;17.21;80.92
38225;BME280;24025;48.138;11.428;2022-08-21T06:53:18;95663.97;;;17.26;80.17
38225;BME280;24025;48.138;11.428;2022-08-21T06:55:48;95652.34;;;17.33;80.17
38225;BME280;24025;48.138;11.428;2022-08-21T06:58:19;95666.13;;;17.39;77.97
38225;BME280;24025;48.138;11.428;2022-08-21T07:00:50;95663.75;;;17.44;78.92
38225;BME280;24025;48.138;11.428;2022-08-21T07:03:29;95661.78;;;17.48;77.85
38225;BME280;24025;48.138;11.428;2022-08-21T07:06:00;95656.31;;;17.55;77.76
38225;BME280;24025;48.138;11.428;2022-08-21T07:08:30;95659.75;;;17.56;76.00
38225;BME280;24025;48.138;11.428;2022-08-21T07:11:03;95650.91;;;17.55;75.96
38225;BME280;24025;48.138;11.428;2022-08-21T07:13:34;95656.28;;;17.59;75.89
38225;BME280;24025;48.138;11.428;2022-08-21T07:16:06;95646.59;;;17.62;75.27
38225;BME280;24025;48.138;11.428;2022-08-21T07:18:36;95649.66;;;17.64;74.68
38225;BME280;24025;48.138;11.428;2022-08-21T07:21:07;95651.53;;;17.70;74.96
38225;BME280;24025;48.138;11.428;2022-08-21T07:23:42;95644.53;;;17.76;74.72
38225;BME280;24025;48.138;11.428;2022-08-21T07:26:14;95645.22;;;17.80;73.21
38225;BME280;24025;48.138;11.428;2022-08-21T07:28:45;95648.19;;;17.90;74.04
38225;BME280;24025;48.138;11.428;2022-08-21T07:31:17;95645.81;;;17.95;73.68
38225;BME280;24025;48.138;11.428;2022-08-21T07:33:48;95650.78;;;17.97;70.86
38225;BME280;24025;48.138;11.428;2022-08-21T07:36:19;95648.41;;;18.02;71.64
38225;BME280;24025;48.138;11.428;2022-08-21T07:38:50;95643.78;;;18.03;72.53
38225;BME280;24025;48.138;11.428;2022-08-21T07:41:23;95651.00;;;18.09;71.83
38225;BME280;24025;48.138;11.428;2022-08-21T07:43:56;95643.63;;;18.14;70.70
38225;BME280;24025;48.138;11.428;2022-08-21T07:46:27;95645.09;;;18.18;70.85
38225;BME280;24025;48.138;11.428;2022-08-21T07:48:58;95640.34;;;18.26;71.78
38225;BME280;24025;48.138;11.428;2022-08-21T07:51:28;95639.91;;;18.31;71.54
38225;BME280;24025;48.138;11.428;2022-08-21T07:54:00;95634.09;;;18.32;70.73
38225;BME280;24025;48.138;11.428;2022-08-21T07:56:31;95639.78;;;18.38;71.22
38225;BME280;24025;48.138;11.428;2022-08-21T07:59:02;95633.06;;;18.46;71.49
38225;BME280;24025;48.138;11.428;2022-08-21T08:01:32;95638.44;;;18.50;71.55
38225;BME280;24025;48.138;11.428;2022-08-21T08:04:03;95634.44;;;18.58;71.67
38225;BME280;24025;48.138;11.428;2022-08-21T08:06:34;95634.72;;;18.63;69.66
38225;BME280;24025;48.138;11.428;2022-08-21T08:09:04;95631.25;;;18.66;69.77
38225;BME280;24025;48.138;11.428;2022-08-21T08:11:35;95633.47;;;18.72;70.80
38225;BME280;24025;48.138;11.428;2022-08-21T08:14:07;95627.59;;;18.77;69.62
38225;BME280;24025;48.138;11.428;2022-08-21T08:16:37;95634.41;;;18.85;70.84
38225;BME280;24025;48.138;11.428;2022-08-21T08:19:07;95638.16;;;18.91;68.51
38225;BME280;24025;48.138;11.428;2022-08-21T08:21:38;95631.94;;;18.94;69.39
38225;BME280;24025;48.138;11.428;2022-08-21T08:24:08;95630.31;;;18.96;68.67
38225;BME280;24025;48.138;11.428;2022-08-21T08:26:39;95627.97;;;18.99;68.02
38225;BME280;24025;48.138;11.428;2022-08-21T08:29:09;95627.84;;;19.06;69.09
38225;BME280;24025;48.138;11.428;2022-08-21T08:31:39;95621.06;;;19.17;69.04
38225;BME280;24025;48.138;11.428;2022-08-21T08:34:10;95622.84;;;19.24;68.59
38225;BME280;24025;48.138;11.428;2022-08-21T08:36:40;95627.72;;;19.33;68.08
38225;BME280;24025;48.138;11.428;2022-08-21T08:39:11;95620.31;;;19.37;66.60
38225;BME280;24025;48.138;11.428;2022-08-21T08:41:43;95622.88;;;19.44;66.10
38225;BME280;24025;48.138;11.428;2022-08-21T08:44:15;95623.78;;;19.57;66.00
38225;BME280;24025;48.138;11.428;2022-08-21T08:46:47;95616.00;;;19.59;64.59
38225;BME280;24025;48.138;11.428;2022-08-21T08:49:29;95626.25;;;19.68;64.89
38225;BME280;24025;48.138;11.428;2022-08-21T08:54:52;95624.03;;;19.83;64.27
38225;BME280;24025;48.138;11.428;2022-08-21T08:57:27;95621.41;;;19.95;64.71
38225;BME280;24025;48.138;11.428;2022-08-21T09:00:00;95625.91;;;20.02;63.68
38225;BME280;24025;48.138;11.428;2022-08-21T09:02:32;95624.25;;;20.08;63.40
38225;BME280;24025;48.138;11.428;2022-08-21T09:05:03;95621.38;;;20.15;63.37
38225;BME280;24025;48.138;11.428;2022-08-21T09:10:38;95618.25;;;20.33;64.79
38225;BME280;24025;48.138;11.428;2022-08-21T09:13:21;95618.81;;;20.41;64.56
38225;BME280;24025;48.138;11.428;2022-08-21T09:16:09;95619.72;;;20.54;64.52
38225;BME280;24025;48.138;11.428;2022-08-21T09:19:28;95613.50;;;20.70;64.34
38225;BME280;24025;48.138;11.428;2022-08-21T09:27:14;95617.31;;;20.72;63.60
38225;BME280;24025;48.138;11.428;2022-08-21T09:29:47;95620.88;;;20.85;63.59
38225;BME280;24025;48.138;11.428;2022-08-21T09:32:23;95614.88;;;21.07;63.81
38225;BME280;24025;48.138;11.428;2022-08-21T09:38:07;95610.34;;;21.45;62.48
38225;BME280;24025;48.138;11.428;2022-08-21T09:40:45;95608.56;;;21.68;62.50
38225;BME280;24025;48.138;11.428;2022-08-21T09:43:22;95608.56;;;21.93;61.28
38225;BME280;24025;48.138;11.428;2022-08-21T09:46:11;95602.31;;;22.09;61.13
38225;BME280;24025;48.138;11.428;2022-08-21T09:48:48;95605.53;;;22.29;60.73
38225;BME280;24025;48.138;11.428;2022-08-21T09:51:26;95594.41;;;22.49;60.10
38225;BME280;24025;48.138;11.428;2022-08-21T09:56:52;95600.19;;;22.26;59.19
38225;BME280;24025;48.138;11.428;2022-08-21T09:59:43;95592.72;;;22.17;59.41
38225;BME280;24025;48.138;11.428;2022-08-21T10:02:32;95589.34;;;22.26;60.17
38225;BME280;24025;48.138;11.428;2022-08-21T10:05:07;95591.06;;;22.32;60.06
38225;BME280;24025;48.138;11.428;2022-08-21T10:07:38;95592.94;;;22.70;60.14
38225;BME280;24025;48.138;11.428;2022-08-21T10:10:17;95587.50;;;22.36;59.06
38225;BME280;24025;48.138;11.428;2022-08-21T10:12:55;95595.22;;;22.24;59.14
38225;BME280;24025;48.138;11.428;2022-08-21T10:18:27;95585.84;;;22.38;58.24
38225;BME280;24025;48.138;11.428;2022-08-21T10:26:29;95585.31;;;22.91;57.23
38225;BME280;24025;48.138;11.428;2022-08-21T10:35:20;95579.78;;;22.81;56.23
38225;BME280;24025;48.138;11.428;2022-08-21T10:38:19;95577.66;;;22.64;54.98
38225;BME280;24025;48.138;11.428;2022-08-21T10:41:14;95574.88;;;22.76;53.83
38225;BME280;24025;48.138;11.428;2022-08-21T10:46:55;95572.53;;;23.00;55.68
38225;BME280;24025;48.138;11.428;2022-08-21T10:58:04;95574.94;;;22.51;56.01
38225;BME280;24025;48.138;11.428;2022-08-21T11:00:43;95570.88;;;22.21;54.18
38225;BME280;24025;48.138;11.428;2022-08-21T11:03:21;95566.09;;;21.99;54.94
38225;BME280;24025;48.138;11.428;2022-08-21T11:05:57;95565.13;;;22.19;55.97
38225;BME280;24025;48.138;11.428;2022-08-21T11:08:35;95559.25;;;22.68;55.37
38225;BME280;24025;48.138;11.428;2022-08-21T11:11:35;95558.34;;;23.27;53.25
38225;BME280;24025;48.138;11.428;2022-08-21T11:17:12;95553.00;;;24.08;49.93
38225;BME280;24025;48.138;11.428;2022-08-21T11:19:59;95545.50;;;24.30;48.10
38225;BME280;24025;48.138;11.428;2022-08-21T11:22:44;95542.34;;;24.32;48.69
38225;BME280;24025;48.138;11.428;2022-08-21T11:25:22;95542.66;;;24.52;48.49
38225;BME280;24025;48.138;11.428;2022-08-21T11:28:02;95547.38;;;24.79;49.47
38225;BME280;24025;48.138;11.428;2022-08-21T11:36:55;95546.53;;;24.23;48.51
38225;BME280;24025;48.138;11.428;2022-08-21T11:47:25;95548.50;;;24.14;47.40
38225;BME280;24025;48.138;11.428;2022-08-21T11:50:29;95544.22;;;24.04;46.54
38225;BME280;24025;48.138;11.428;2022-08-21T11:55:48;95530.09;;;24.91;40.34
38225;BME280;24025;48.138;11.428;2022-08-21T12:01:40;95531.72;;;25.34;41.82
38225;BME280;24025;48.138;11.428;2022-08-21T12:06:50;95524.09;;;25.57;42.74
38225;BME280;24025;48.138;11.428;2022-08-21T12:14:46;95522.06;;;24.78;42.00
38225;BME280;24025;48.138;11.428;2022-08-21T12:17:26;95516.59;;;25.15;42.68
38225;BME280;24025;48.138;11.428;2022-08-21T12:25:44;95510.09;;;26.06;38.42
38225;BME280;24025;48.138;11.428;2022-08-21T12:28:21;95505.56;;;26.27;36.87
38225;BME280;24025;48.138;11.428;2022-08-21T12:30:53;95504.19;;;26.70;38.18
38225;BME280;24025;48.138;11.428;2022-08-21T12:33:31;95497.84;;;27.03;38.27
38225;BME280;24025;48.138;11.428;2022-08-21T12:36:15;95498.00;;;26.99;39.75
38225;BME280;24025;48.138;11.428;2022-08-21T12:39:13;95496.78;;;27.00;40.19
38225;BME280;24025;48.138;11.428;2022-08-21T12:41:52;95496.44;;;27.22;39.43
38225;BME280;24025;48.138;11.428;2022-08-21T12:44:33;95489.66;;;27.18;39.29
38225;BME280;24025;48.138;11.428;2022-08-21T12:47:11;95491.78;;;26.45;39.62
38225;BME280;24025;48.138;11.428;2022-08-21T12:50:02;95487.72;;;26.79;39.49
38225;BME280;24025;48.138;11.428;2022-08-21T12:52:35;95484.50;;;26.81;40.08
38225;BME280;24025;48.138;11.428;2022-08-21T12:55:12;95485.06;;;27.00;38.52
38225;BME280;24025;48.138;11.428;2022-08-21T12:57:42;95474.25;;;27.05;39.13
38225;BME280;24025;48.138;11.428;2022-08-21T13:00:13;95475.13;;;26.73;37.97
38225;BME280;24025;48.138;11.428;2022-08-21T13:02:49;95472.13;;;27.00;38.38
38225;BME280;24025;48.138;11.428;2022-08-21T13:05:31;95474.66;;;27.13;37.48
38225;BME280;24025;48.138;11.428;2022-08-21T13:08:07;95466.22;;;27.31;36.22
38225;BME280;24025;48.138;11.428;2022-08-21T13:10:40;95466.72;;;27.15;36.32
38225;BME280;24025;48.138;11.428;2022-08-21T13:13:17;95467.47;;;27.30;38.08
38225;BME280;24025;48.138;11.428;2022-08-21T13:15:57;95466.72;;;27.15;36.07
38225;BME280;24025;48.138;11.428;2022-08-21T13:18:31;95462.16;;;27.27;35.81
38225;BME280;24025;48.138;11.428;2022-08-21T13:21:12;95464.66;;;27.60;35.84
38225;BME280;24025;48.138;11.428;2022-08-21T13:23:43;95465.63;;;26.98;36.49
38225;BME280;24025;48.138;11.428;2022-08-21T13:26:16;95467.63;;;26.97;36.64
38225;BME280;24025;48.138;11.428;2022-08-21T13:28:49;95461.50;;;27.17;36.13
38225;BME280;24025;48.138;11.428;2022-08-21T13:31:26;95457.19;;;27.75;36.98
38225;BME280;24025;48.138;11.428;2022-08-21T13:33:57;95457.63;;;27.88;35.54
38225;BME280;24025;48.138;11.428;2022-08-21T13:36:32;95455.72;;;27.94;34.59
38225;BME280;24025;48.138;11.428;2022-08-21T13:39:06;95465.72;;;27.98;35.64
38225;BME280;24025;48.138;11.428;2022-08-21T13:41:43;95463.25;;;28.00;36.63
38225;BME280;24025;48.138;11.428;2022-08-21T13:44:22;95457.75;;;27.64;36.42
38225;BME280;24025;48.138;11.428;2022-08-21T13:46:57;95446.69;;;27.24;37.07
38225;BME280;24025;48.138;11.428;2022-08-21T13:49:31;95448.34;;;26.92;36.95
38225;BME280;24025;48.138;11.428;2022-08-21T13:52:03;95450.41;;;26.67;38.13
38225;BME280;24025;48.138;11.428;2022-08-21T13:54:42;95451.06;;;26.62;38.17
38225;BME280;24025;48.138;11.428;2022-08-21T13:57:19;95445.44;;;26.80;37.65
38225;BME280;24025;48.138;11.428;2022-08-21T14:00:16;95442.25;;;27.12;37.39
38225;BME280;24025;48.138;11.428;2022-08-21T14:02:50;95452.44;;;26.96;37.29
38225;BME280;24025;48.138;11.428;2022-08-21T14:05:28;95454.84;;;26.94;38.30
38225;BME280;24025;48.138;11.428;2022-08-21T14:08:12;95452.81;;;27.19;37.71
38225;BME280;24025;48.138;11.428;2022-08-21T14:10:50;95451.16;;;27.56;36.32
38225;BME280;24025;48.138;11.428;2022-08-21T14:13:35;95444.28;;;27.96;35.45
38225;BME280;24025;48.138;11.428;2022-08-21T14:16:44;95448.69;;;27.73;34.65
38225;BME280;24025;48.138;11.428;2022-08-21T14:19:23;95443.25;;;27.93;34.44
38225;BME280;24025;48.138;11.428;2022-08-21T14:21:54;95448.41;;;28.47;34.60
38225;BME280;24025;48.138;11.428;2022-08-21T14:24:28;95441.13;;;28.64;33.86
38225;BME280;24025;48.138;11.428;2022-08-21T14:27:06;95446.19;;;28.51;33.33
38225;BME280;24025;48.138;11.428;2022-08-21T14:29:39;95441.72;;;29.31;33.11
38225;BME280;24025;48.138;11.428;2022-08-21T14:32:12;95439.22;;;30.02;31.15
38225;BME280;24025;48.138;11.428;2022-08-21T14:34:44;95436.56;;;31.51;29.76
38225;BME280;24025;48.138;11.428;2022-08-21T14:37:14;95434.78;;;31.93;29.68
38225;BME280;24025;48.138;11.428;2022-08-21T14:39:44;95445.34;;;33.35;27.59
38225;BME280;24025;48.138;11.428;2022-08-21T14:42:15;95430.13;;;35.20;23.23
38225;BME280;24025;48.138;11.428;2022-08-21T14:44:47;95420.97;;;38.10;22.61